Time;durP1;ratioP1;P1;durP2;ratioP2;P2;SDS_P1;SDS_P2;PMS_P1;PMS_P2;Temp;Humidity;BMP_temperature;BMP_pressure;BME280_temperature;BME280_humidity;BME280_pressure;Samples;Min_cycle;Max_cycle;Signal;HPM_P1;HPM_P2
2022/11/30 00:00:20;;;;;;;6.80;4.40;;;;;;;15.15;40.00;101438.95;104644;1292;69222;-88
2022/11/30 00:02:45;;;;;;;6.50;4.50;;;;;;;15.15;40.03;101433.48;104671;1291;82103;-88
2022/11/30 00:05:11;;;;;;;6.70;4.70;;;;;;;15.14;39.87;101440.89;104457;1295;69157;-88
2022/11/30 00:07:36;;;;;;;6.80;4.60;;;;;;;15.15;39.97;101435.14;104243;1288;69209;-88
2022/11/30 00:10:03;;;;;;;7.10;4.90;;;;;;;15.15;39.93;101440.56;104230;1292;69669;-87
2022/11/30 00:12:28;;;;;;;7.80;4.60;;;;;;;15.15;39.89;101439.85;104078;1292;69199;-88
2022/11/30 00:14:54;;;;;;;6.40;4.60;;;;;;;15.15;39.91;101445.66;104152;1292;69199;-88
2022/11/30 00:17:19;;;;;;;7.00;4.30;;;;;;;15.15;39.90;101443.60;104098;1289;69204;-88
2022/11/30 00:19:45;;;;;;;7.00;4.60;;;;;;;15.14;39.87;101448.86;104453;1291;69326;-88
2022/11/30 00:22:10;;;;;;;7.60;4.80;;;;;;;15.15;39.84;101448.37;104460;1290;69179;-87
2022/11/30 00:24:36;;;;;;;6.30;4.70;;;;;;;15.14;39.89;101440.98;104485;1288;69170;-88
2022/11/30 00:27:01;;;;;;;8.30;4.80;;;;;;;15.14;39.85;101434.04;104704;1295;69196;-90
2022/11/30 00:29:27;;;;;;;6.60;4.70;;;;;;;15.14;39.75;101429.27;104375;1291;69251;-93
2022/11/30 00:31:52;;;;;;;6.00;4.80;;;;;;;15.14;39.92;101428.31;104399;1291;69281;-88
2022/11/30 00:34:18;;;;;;;6.80;4.70;;;;;;;15.14;39.88;101431.41;104307;1290;69150;-88
2022/11/30 00:36:43;;;;;;;7.40;5.00;;;;;;;15.14;39.79;101428.80;104345;1297;69307;-88
2022/11/30 00:39:09;;;;;;;6.60;4.60;;;;;;;15.14;39.87;101433.58;104082;1290;69143;-88
2022/11/30 00:41:34;;;;;;;6.50;4.70;;;;;;;15.14;39.93;101432.05;104347;1284;69211;-90
2022/11/30 00:44:00;;;;;;;6.00;4.70;;;;;;;15.13;39.73;101430.96;104141;1292;69258;-88
2022/11/30 00:46:25;;;;;;;7.50;5.10;;;;;;;15.13;39.75;101428.02;104079;1290;69303;-88
2022/11/30 00:48:51;;;;;;;7.70;5.00;;;;;;;15.13;39.73;101425.23;104511;1290;69215;-88
2022/11/30 00:51:17;;;;;;;6.50;4.50;;;;;;;15.13;39.78;101422.93;104337;1288;69630;-88
2022/11/30 00:53:43;;;;;;;7.20;5.10;;;;;;;15.13;39.72;101425.33;104369;1289;69012;-88
2022/11/30 00:56:08;;;;;;;7.60;5.20;;;;;;;15.13;39.71;101420.15;104276;1292;69158;-89
2022/11/30 00:58:34;;;;;;;6.80;4.70;;;;;;;15.13;39.70;101427.48;104185;1290;69134;-88
2022/11/30 01:00:59;;;;;;;6.00;4.50;;;;;;;15.13;39.75;101426.75;104236;1292;69176;-88
2022/11/30 01:03:25;;;;;;;6.60;5.00;;;;;;;15.13;39.71;101423.41;104306;1291;83113;-89
2022/11/30 01:05:50;;;;;;;7.70;5.40;;;;;;;15.13;39.73;101423.50;104361;1291;69231;-88
2022/11/30 01:08:16;;;;;;;6.60;4.80;;;;;;;15.13;39.70;101422.31;104156;1298;69241;-88
2022/11/30 01:10:42;;;;;;;7.10;4.80;;;;;;;15.13;39.67;101416.41;104155;1291;69206;-89
2022/11/30 01:13:08;;;;;;;7.70;5.00;;;;;;;15.13;39.78;101418.72;104330;1290;69134;-88
2022/11/30 01:15:38;;;;;;;7.40;5.30;;;;;;;15.12;39.64;101416.66;104258;1293;72341;-88
2022/11/30 01:18:03;;;;;;;6.60;5.20;;;;;;;15.12;39.68;101416.11;104363;1292;69212;-89
2022/11/30 01:20:29;;;;;;;7.70;5.20;;;;;;;15.12;39.71;101410.07;104353;1288;69225;-88
2022/11/30 01:22:54;;;;;;;8.20;5.30;;;;;;;15.12;39.76;101410.62;104000;1288;69296;-88
2022/11/30 01:25:20;;;;;;;7.30;5.30;;;;;;;15.12;39.68;101409.27;104244;1290;69231;-88
2022/11/30 01:27:49;;;;;;;8.80;5.40;;;;;;;15.11;39.61;101403.39;104599;1290;69133;-88
2022/11/30 01:30:14;;;;;;;7.20;5.30;;;;;;;15.12;39.61;101402.66;104463;1283;69098;-88
2022/11/30 01:32:40;;;;;;;6.50;5.00;;;;;;;15.11;39.65;101399.48;105785;1284;69157;-89
2022/11/30 01:35:06;;;;;;;7.60;5.40;;;;;;;15.11;39.68;101394.23;107128;1278;66067;-89
2022/11/30 01:37:31;;;;;;;7.40;5.30;;;;;;;15.12;39.66;101392.30;106825;1283;66747;-89
2022/11/30 01:39:57;;;;;;;8.00;5.30;;;;;;;15.13;39.60;101393.16;105408;1285;69243;-89
2022/11/30 01:42:22;;;;;;;7.00;4.80;;;;;;;15.13;39.60;101395.27;107199;1280;73718;-89
2022/11/30 01:44:58;;;;;;;8.70;4.90;;;;;;;15.14;39.60;101393.52;107053;1289;66304;-89
2022/11/30 01:47:29;;;;;;;8.10;5.40;;;;;;;15.15;39.61;101393.06;106626;1287;72229;-89
2022/11/30 01:49:57;;;;;;;6.20;4.80;;;;;;;15.16;39.70;101387.30;103992;1291;69078;-88
2022/11/30 01:52:31;;;;;;;6.60;4.80;;;;;;;15.17;39.57;101381.71;106224;1283;66865;-88
2022/11/30 01:55:09;;;;;;;7.40;5.50;;;;;;;15.18;39.61;101380.48;104563;1292;73820;-89
2022/11/30 01:57:42;;;;;;;7.60;5.30;;;;;;;15.17;39.58;101381.52;104349;1288;82149;-88
2022/11/30 02:00:09;;;;;;;7.90;5.60;;;;;;;15.17;39.53;101385.34;104381;1290;72555;-88
2022/11/30 02:03:00;;;;;;;8.40;5.40;;;;;;;15.17;39.45;101385.89;104462;1288;69250;-89
2022/11/30 02:05:26;;;;;;;7.50;5.30;;;;;;;15.17;39.40;101387.11;104585;1285;69203;-88
2022/11/30 02:07:51;;;;;;;7.40;5.30;;;;;;;15.17;39.47;101380.50;104337;1288;69165;-88
2022/11/30 02:10:21;;;;;;;10.30;5.90;;;;;;;15.16;39.37;101379.88;104476;1292;69294;-88
2022/11/30 02:13:13;;;;;;;7.80;5.70;;;;;;;15.16;39.47;101380.99;104292;1294;73633;-88
2022/11/30 02:16:14;;;;;;;7.10;5.00;;;;;;;15.16;39.35;101385.64;104600;1292;69232;-88
2022/11/30 02:19:01;;;;;;;7.70;5.50;;;;;;;15.15;39.40;101387.73;104400;1292;69123;-88
2022/11/30 02:21:58;;;;;;;7.80;5.30;;;;;;;15.14;39.37;101384.56;104627;1288;74613;-89
2022/11/30 02:24:47;;;;;;;7.10;5.30;;;;;;;15.14;39.31;101384.27;104569;1292;81955;-88
2022/11/30 02:27:16;;;;;;;7.50;5.20;;;;;;;15.14;39.27;101393.91;104580;1290;72319;-88
2022/11/30 02:29:48;;;;;;;8.00;5.10;;;;;;;15.13;39.35;101399.67;104205;1288;381938;-88
2022/11/30 02:32:23;;;;;;;7.30;5.20;;;;;;;15.13;39.28;101404.69;104119;1289;69131;-88
2022/11/30 02:34:48;;;;;;;7.90;5.60;;;;;;;15.12;39.34;101405.98;104135;1288;73655;-88
2022/11/30 02:37:14;;;;;;;7.40;5.30;;;;;;;15.12;39.25;101416.73;104241;1291;69307;-88
2022/11/30 02:39:41;;;;;;;6.30;4.70;;;;;;;15.13;39.27;101420.00;104192;1291;69295;-88
2022/11/30 02:42:13;;;;;;;6.60;5.10;;;;;;;15.12;39.32;101416.81;104155;1290;69143;-88
2022/11/30 02:44:40;;;;;;;10.30;5.30;;;;;;;15.12;39.33;101417.08;104489;1290;69173;-88
2022/11/30 02:47:17;;;;;;;9.10;5.40;;;;;;;15.11;39.23;101408.64;104204;1292;72625;-93
2022/11/30 02:50:07;;;;;;;8.10;5.20;;;;;;;15.11;39.21;101392.95;103943;1291;82086;-88
2022/11/30 02:52:32;;;;;;;7.20;5.00;;;;;;;15.11;39.19;101388.42;104387;1298;72481;-88
2022/11/30 02:55:03;;;;;;;7.20;5.10;;;;;;;15.10;39.34;101389.41;104694;1292;69197;-88
2022/11/30 02:57:28;;;;;;;6.80;4.90;;;;;;;15.10;39.19;101398.72;104404;1293;69583;-88
2022/11/30 02:59:54;;;;;;;6.50;4.60;;;;;;;15.10;39.21;101407.65;104562;1287;69546;-88
2022/11/30 03:02:20;;;;;;;6.80;4.60;;;;;;;15.10;39.22;101422.62;104189;1291;69240;-88
2022/11/30 03:04:45;;;;;;;6.00;4.50;;;;;;;15.10;39.16;101430.36;104286;1292;69155;-88
2022/11/30 03:07:11;;;;;;;7.40;4.60;;;;;;;15.10;39.09;101429.71;104276;1284;69151;-88
2022/11/30 03:09:36;;;;;;;5.70;4.50;;;;;;;15.10;39.11;101428.13;104310;1292;69254;-87
2022/11/30 03:12:02;;;;;;;6.70;4.20;;;;;;;15.10;39.06;101419.20;104361;1294;69189;-88
2022/11/30 03:14:27;;;;;;;5.80;4.10;;;;;;;15.10;39.12;101420.40;104366;1291;69183;-88
2022/11/30 03:16:53;;;;;;;6.30;4.40;;;;;;;15.10;39.08;101419.06;104331;1294;69233;-92
2022/11/30 03:19:18;;;;;;;7.90;4.40;;;;;;;15.09;39.07;101419.70;104241;1290;69270;-87
2022/11/30 03:21:44;;;;;;;6.60;4.60;;;;;;;15.09;39.08;101422.67;104515;1292;69107;-88
2022/11/30 03:24:09;;;;;;;6.30;4.30;;;;;;;15.09;39.02;101424.48;104153;1292;69305;-88
2022/11/30 03:26:35;;;;;;;5.50;4.30;;;;;;;15.09;39.03;101425.36;104336;1291;69218;-88
2022/11/30 03:29:00;;;;;;;6.00;3.70;;;;;;;15.09;38.91;101427.75;104493;1287;69180;-88
2022/11/30 03:31:26;;;;;;;6.30;4.60;;;;;;;15.10;39.00;101433.23;104065;1291;82202;-88
2022/11/30 03:33:51;;;;;;;6.80;4.50;;;;;;;15.09;38.97;101429.90;104320;1292;69131;-88
2022/11/30 03:36:17;;;;;;;6.40;4.70;;;;;;;15.10;38.90;101428.92;104491;1292;69426;-88
2022/11/30 03:38:42;;;;;;;6.30;4.30;;;;;;;15.10;38.88;101427.34;104468;1290;69232;-88
2022/11/30 03:41:12;;;;;;;6.00;4.40;;;;;;;15.09;38.92;101423.45;104259;1288;69135;-88
2022/11/30 03:43:37;;;;;;;6.30;4.30;;;;;;;15.09;38.92;101416.36;104174;1288;73376;-88
2022/11/30 03:46:03;;;;;;;6.30;4.30;;;;;;;15.09;38.80;101405.61;104153;1291;69224;-88
2022/11/30 03:48:29;;;;;;;5.80;4.50;;;;;;;15.09;38.79;101398.13;104394;1291;69730;-88
2022/11/30 03:50:55;;;;;;;6.70;4.30;;;;;;;15.09;38.87;101394.78;104411;1290;69202;-88
2022/11/30 03:53:22;;;;;;;7.10;4.80;;;;;;;15.09;38.80;101394.79;104517;1294;69195;-88
2022/11/30 03:55:52;;;;;;;6.60;4.30;;;;;;;15.09;38.83;101395.41;104055;1291;67182;-92
2022/11/30 03:58:18;;;;;;;5.20;4.30;;;;;;;15.09;38.75;101400.27;104362;1289;69005;-88
2022/11/30 04:00:43;;;;;;;5.40;4.20;;;;;;;15.09;38.71;101396.30;104646;1293;69306;-88
2022/11/30 04:03:09;;;;;;;6.10;4.20;;;;;;;15.09;38.79;101395.09;104574;1285;69313;-88
2022/11/30 04:05:34;;;;;;;6.10;4.60;;;;;;;15.09;38.79;101394.85;104639;1289;69638;-88
2022/11/30 04:07:59;;;;;;;6.20;4.30;;;;;;;15.10;38.84;101397.95;104327;1285;69281;-88
2022/11/30 04:10:25;;;;;;;5.60;4.30;;;;;;;15.10;38.84;101407.19;104255;1285;69667;-88
2022/11/30 04:12:50;;;;;;;6.00;4.60;;;;;;;15.09;38.72;101417.31;104508;1289;69162;-89
2022/11/30 04:15:16;;;;;;;6.10;4.50;;;;;;;15.09;38.75;101421.38;104292;1291;69056;-88
2022/11/30 04:17:41;;;;;;;7.00;4.50;;;;;;;15.10;38.74;101422.95;104307;1290;69371;-89
2022/11/30 04:20:07;;;;;;;6.80;4.60;;;;;;;15.10;38.70;101428.69;104053;1290;69215;-88
2022/11/30 04:22:33;;;;;;;6.00;4.50;;;;;;;15.09;38.65;101430.30;104333;1288;69042;-88
2022/11/30 04:24:58;;;;;;;7.50;4.40;;;;;;;15.10;38.63;101433.30;104370;1291;69324;-88
2022/11/30 04:27:24;;;;;;;6.60;4.90;;;;;;;15.10;38.69;101436.90;104688;1294;67826;-88
2022/11/30 04:29:49;;;;;;;6.30;4.70;;;;;;;15.10;38.75;101435.60;104439;1281;69195;-88
2022/11/30 04:32:15;;;;;;;6.70;4.80;;;;;;;15.10;38.71;101434.58;104568;1285;73513;-89
2022/11/30 04:34:40;;;;;;;6.50;4.80;;;;;;;15.10;38.70;101431.85;104476;1292;69189;-93
2022/11/30 04:37:06;;;;;;;7.50;5.00;;;;;;;15.10;38.64;101426.36;103902;1291;69138;-88
2022/11/30 04:39:33;;;;;;;6.40;4.60;;;;;;;15.11;38.75;101433.60;104396;1289;69189;-89
2022/11/30 04:41:58;;;;;;;6.80;4.40;;;;;;;15.11;38.67;101437.40;104358;1294;69318;-88
2022/11/30 04:44:24;;;;;;;7.00;4.50;;;;;;;15.11;38.56;101431.85;104311;1292;69221;-88
2022/11/30 04:46:49;;;;;;;5.90;4.20;;;;;;;15.11;38.52;101432.39;104724;1292;69257;-89
2022/11/30 04:49:15;;;;;;;6.70;4.40;;;;;;;15.11;38.65;101436.92;104429;1292;69319;-88
2022/11/30 04:51:40;;;;;;;6.40;4.70;;;;;;;15.11;38.52;101427.55;104622;1286;69259;-88
2022/11/30 04:54:06;;;;;;;6.10;4.40;;;;;;;15.11;38.56;101430.50;104560;1291;69254;-88
2022/11/30 04:56:31;;;;;;;6.30;4.40;;;;;;;15.11;38.66;101437.81;104677;1282;73238;-89
2022/11/30 04:58:56;;;;;;;5.80;4.50;;;;;;;15.11;38.58;101440.59;104450;1284;69153;-89
2022/11/30 05:01:22;;;;;;;8.30;4.70;;;;;;;15.11;38.63;101443.64;104612;1288;69156;-89
2022/11/30 05:03:47;;;;;;;6.90;4.60;;;;;;;15.11;38.49;101435.11;104465;1288;69166;-89
2022/11/30 05:06:13;;;;;;;5.70;4.30;;;;;;;15.11;38.57;101434.15;104303;1285;69286;-88
2022/11/30 05:08:38;;;;;;;6.90;4.50;;;;;;;15.11;38.61;101440.77;104549;1292;69199;-89
2022/11/30 05:11:04;;;;;;;5.80;4.40;;;;;;;15.11;38.49;101442.44;104514;1290;69185;-89
2022/11/30 05:13:29;;;;;;;5.60;4.20;;;;;;;15.10;38.56;101445.23;104461;1296;69209;-93
2022/11/30 05:15:55;;;;;;;6.30;4.20;;;;;;;15.11;38.69;101434.39;104301;1288;69279;-89
2022/11/30 05:18:20;;;;;;;5.40;4.10;;;;;;;15.11;38.48;101434.31;104490;1295;69098;-89
2022/11/30 05:20:49;;;;;;;5.60;3.90;;;;;;;15.11;38.48;101426.10;104522;1290;69183;-89
2022/11/30 05:23:16;;;;;;;6.30;4.00;;;;;;;15.10;38.43;101423.65;104453;1293;72843;-89
2022/11/30 05:25:42;;;;;;;4.90;4.00;;;;;;;15.10;38.54;101423.65;104524;1288;69189;-89
2022/11/30 05:28:08;;;;;;;5.70;3.90;;;;;;;15.10;38.47;101422.95;104607;1292;69591;-89
2022/11/30 05:30:33;;;;;;;5.10;4.00;;;;;;;15.11;38.46;101418.70;104567;1291;69162;-89
2022/11/30 05:32:59;;;;;;;5.40;3.70;;;;;;;15.10;38.39;101424.61;104000;1290;69272;-88
2022/11/30 05:35:24;;;;;;;4.10;3.40;;;;;;;15.11;38.41;101426.56;104592;1289;69218;-89
2022/11/30 05:37:50;;;;;;;6.40;4.60;;;;;;;15.11;38.41;101424.42;104295;1294;72616;-89
2022/11/30 05:40:16;;;;;;;6.30;4.20;;;;;;;15.11;38.38;101432.95;104528;1290;69204;-88
2022/11/30 05:42:41;;;;;;;5.10;3.90;;;;;;;15.10;38.36;101435.36;104212;1291;69227;-89
2022/11/30 05:45:07;;;;;;;5.20;3.80;;;;;;;15.10;38.31;101438.95;104114;1285;69247;-89
2022/11/30 05:47:33;;;;;;;5.50;4.00;;;;;;;15.11;38.39;101442.67;104583;1291;68537;-89
2022/11/30 05:49:58;;;;;;;5.10;3.50;;;;;;;15.11;38.36;101449.05;104094;1298;69169;-89
2022/11/30 05:52:24;;;;;;;5.30;4.10;;;;;;;15.10;38.27;101452.48;104365;1292;69198;-94
2022/11/30 05:54:49;;;;;;;4.90;3.80;;;;;;;15.10;38.27;101452.02;104091;1284;69169;-89
2022/11/30 05:57:15;;;;;;;4.80;3.70;;;;;;;15.11;38.27;101454.08;104540;1288;69166;-88
2022/11/30 05:59:40;;;;;;;4.70;3.50;;;;;;;15.11;38.23;101460.59;104699;1294;69221;-89
2022/11/30 06:02:06;;;;;;;4.90;3.80;;;;;;;15.11;38.31;101457.48;104190;1290;69202;-89
2022/11/30 06:04:32;;;;;;;4.70;3.70;;;;;;;15.11;38.22;101457.89;104313;1291;69234;-89
2022/11/30 06:06:58;;;;;;;5.20;3.70;;;;;;;15.10;38.25;101456.55;104531;1292;69190;-89
2022/11/30 06:09:24;;;;;;;4.90;3.60;;;;;;;15.11;38.24;101457.81;104310;1292;69215;-88
2022/11/30 06:11:49;;;;;;;4.80;3.40;;;;;;;15.11;38.21;101456.86;104688;1291;69170;-89
2022/11/30 06:14:15;;;;;;;4.60;3.40;;;;;;;15.11;38.14;101462.75;104184;1284;70086;-89
2022/11/30 06:16:40;;;;;;;5.10;3.30;;;;;;;15.11;38.18;101463.79;104554;1297;83253;-89
2022/11/30 06:19:06;;;;;;;6.80;3.90;;;;;;;15.12;38.18;101461.14;104396;1287;69180;-88
2022/11/30 06:21:31;;;;;;;4.80;3.40;;;;;;;15.11;38.16;101464.27;104371;1298;69198;-89
2022/11/30 06:23:57;;;;;;;5.40;3.40;;;;;;;15.11;38.23;101470.15;104255;1292;69158;-89
2022/11/30 06:26:22;;;;;;;4.70;3.30;;;;;;;15.11;38.24;101473.74;104429;1292;67729;-88
2022/11/30 06:28:48;;;;;;;5.10;3.50;;;;;;;15.11;38.14;101480.66;104631;1285;69529;-89
2022/11/30 06:31:13;;;;;;;4.50;3.30;;;;;;;15.11;38.06;101487.36;104639;1294;69134;-94
2022/11/30 06:33:39;;;;;;;5.30;3.50;;;;;;;15.11;38.09;101488.87;104360;1290;69520;-88
2022/11/30 06:36:05;;;;;;;5.00;3.50;;;;;;;15.12;38.14;101485.19;104672;1292;69027;-88
2022/11/30 06:38:30;;;;;;;4.90;3.80;;;;;;;15.12;38.07;101493.55;104561;1295;73398;-89
2022/11/30 06:41:05;;;;;;;5.30;3.50;;;;;;;15.12;38.05;101492.44;104171;1288;69170;-88
2022/11/30 06:43:37;;;;;;;4.90;3.10;;;;;;;15.12;38.04;101490.38;104416;1292;69125;-88
2022/11/30 06:46:03;;;;;;;5.20;3.40;;;;;;;15.12;38.12;101497.13;104482;1296;74613;-89
2022/11/30 06:48:28;;;;;;;5.00;3.40;;;;;;;15.12;38.01;101499.61;104390;1290;69192;-88
2022/11/30 06:50:54;;;;;;;4.70;3.50;;;;;;;15.12;38.00;101501.83;104155;1290;69297;-88
2022/11/30 06:53:19;;;;;;;4.50;3.40;;;;;;;15.12;37.94;101505.33;104354;1291;69077;-89
2022/11/30 06:55:45;;;;;;;5.00;3.70;;;;;;;15.12;37.95;101506.20;104557;1291;69105;-89
2022/11/30 06:58:10;;;;;;;5.50;3.10;;;;;;;15.12;37.92;101507.71;104457;1290;69198;-90
2022/11/30 07:00:36;;;;;;;4.80;3.50;;;;;;;15.12;38.00;101507.25;104335;1292;69258;-89
2022/11/30 07:03:02;;;;;;;5.10;3.70;;;;;;;15.12;37.96;101510.76;103909;1291;69201;-89
2022/11/30 07:05:28;;;;;;;5.30;3.40;;;;;;;15.12;37.91;101507.34;103936;1291;69171;-89
2022/11/30 07:07:53;;;;;;;5.80;3.80;;;;;;;15.12;37.86;101510.11;104033;1282;69286;-89
2022/11/30 07:10:21;;;;;;;5.80;3.60;;;;;;;15.12;37.89;101510.91;104608;1288;73592;-89
2022/11/30 07:12:47;;;;;;;5.00;3.50;;;;;;;15.12;37.87;101513.94;104365;1293;69141;-89
2022/11/30 07:15:13;;;;;;;5.50;3.70;;;;;;;15.12;37.80;101515.13;104412;1293;69135;-89
2022/11/30 07:17:38;;;;;;;5.50;3.80;;;;;;;15.13;37.84;101517.42;104352;1289;69141;-89
2022/11/30 07:20:05;;;;;;;4.60;3.20;;;;;;;15.12;37.72;101512.65;104986;1292;69129;-89
2022/11/30 07:22:30;;;;;;;5.00;3.60;;;;;;;15.12;37.82;101513.45;104944;1288;69201;-89
2022/11/30 07:27:40;;;;;;;6.70;3.70;;;;;;;15.13;37.86;101523.94;107082;1287;73536;-89
2022/11/30 07:30:06;;;;;;;4.70;3.40;;;;;;;15.14;37.84;101521.85;106725;1290;66560;-88
2022/11/30 07:32:32;;;;;;;5.50;3.50;;;;;;;15.15;37.88;101524.92;106290;1292;69084;-89
2022/11/30 07:34:57;;;;;;;4.90;3.40;;;;;;;15.16;37.78;101519.80;104522;1293;69244;-89
2022/11/30 07:37:23;;;;;;;5.00;3.80;;;;;;;15.17;37.84;101525.25;104499;1278;69199;-89
2022/11/30 07:39:48;;;;;;;4.30;3.20;;;;;;;15.17;37.81;101531.05;104318;1293;82171;-89
2022/11/30 07:42:15;;;;;;;4.90;3.60;;;;;;;15.18;37.74;101540.20;104327;1291;69307;-89
2022/11/30 07:44:41;;;;;;;6.00;3.90;;;;;;;15.19;37.67;101544.23;106383;1281;69155;-90
2022/11/30 07:47:06;;;;;;;4.40;3.40;;;;;;;15.19;37.72;101537.14;107059;1284;66360;-90
2022/11/30 07:49:32;;;;;;;5.40;4.10;;;;;;;15.19;37.73;101534.66;105536;1288;67726;-90
2022/11/30 07:51:57;;;;;;;6.40;3.80;;;;;;;15.20;37.75;101545.33;105754;1285;68917;-90
2022/11/30 07:54:23;;;;;;;6.30;3.40;;;;;;;15.21;37.62;101542.52;106944;1286;67712;-90
2022/11/30 07:56:48;;;;;;;4.80;3.60;;;;;;;15.21;37.70;101538.61;107136;1286;66753;-88
2022/11/30 07:59:14;;;;;;;5.70;3.90;;;;;;;15.22;37.74;101543.85;104376;1291;69084;-89
2022/11/30 08:01:39;;;;;;;5.00;3.80;;;;;;;15.23;37.65;101553.45;104525;1285;69241;-88
2022/11/30 08:04:05;;;;;;;4.10;3.40;;;;;;;15.23;37.60;101552.73;104257;1294;69204;-89
2022/11/30 08:06:30;;;;;;;5.40;3.50;;;;;;;15.23;37.67;101557.67;104043;1296;69188;-88
2022/11/30 08:09:01;;;;;;;6.30;4.00;;;;;;;15.23;37.64;101541.59;104466;1292;69242;-88
2022/11/30 08:11:29;;;;;;;4.70;3.60;;;;;;;15.23;37.64;101545.24;104683;1291;83105;-89
2022/11/30 08:13:54;;;;;;;7.20;4.00;;;;;;;15.22;37.58;101547.27;104293;1292;73283;-88
2022/11/30 08:16:23;;;;;;;6.00;3.80;;;;;;;15.22;37.54;101537.46;104770;1285;69141;-88
2022/11/30 08:18:48;;;;;;;5.10;3.70;;;;;;;15.22;37.62;101540.64;104646;1291;67632;-91
2022/11/30 08:21:16;;;;;;;4.80;3.60;;;;;;;15.22;37.61;101541.30;104702;1292;69265;-88
2022/11/30 08:23:54;;;;;;;5.40;3.60;;;;;;;15.21;37.50;101538.84;104916;1294;82913;-88
2022/11/30 08:26:22;;;;;;;5.70;4.10;;;;;;;15.21;37.57;101540.21;104993;1292;73429;-89
2022/11/30 08:28:49;;;;;;;6.30;4.00;;;;;;;15.21;37.64;101544.02;104955;1288;69252;-89
2022/11/30 08:31:23;;;;;;;5.70;4.20;;;;;;;15.22;37.50;101542.48;105096;1293;69535;-89
2022/11/30 08:33:49;;;;;;;5.60;3.90;;;;;;;15.22;37.55;101541.38;104775;1293;73486;-93
2022/11/30 08:36:19;;;;;;;5.10;3.80;;;;;;;15.22;37.56;101541.29;104152;1292;69239;-88
2022/11/30 08:38:45;;;;;;;6.80;4.50;;;;;;;15.22;37.54;101542.66;104351;1288;72644;-88
2022/11/30 08:41:11;;;;;;;6.10;3.90;;;;;;;15.22;37.50;101548.79;104334;1294;69224;-88
2022/11/30 08:43:37;;;;;;;5.70;4.10;;;;;;;15.21;37.53;101547.84;104632;1296;69165;-89
2022/11/30 08:46:04;;;;;;;5.60;3.90;;;;;;;15.21;37.51;101551.85;104547;1294;69253;-89
2022/11/30 08:48:29;;;;;;;4.60;3.60;;;;;;;15.21;37.42;101548.33;104198;1297;69527;-89
2022/11/30 08:50:59;;;;;;;6.80;3.80;;;;;;;15.21;37.49;101544.98;104451;1289;69335;-88
2022/11/30 08:53:25;;;;;;;4.60;3.50;;;;;;;15.21;37.45;101547.14;104879;1292;69142;-88
2022/11/30 08:55:55;;;;;;;6.50;3.80;;;;;;;15.20;37.46;101548.19;104470;1290;69298;-88
2022/11/30 08:58:21;;;;;;;7.10;4.00;;;;;;;15.21;37.56;101549.62;104731;1290;74651;-89
2022/11/30 09:00:46;;;;;;;6.30;4.00;;;;;;;15.20;37.40;101550.19;104536;1288;69237;-93
2022/11/30 09:03:12;;;;;;;6.20;3.90;;;;;;;15.20;37.53;101545.56;104115;1290;69211;-88
2022/11/30 09:05:37;;;;;;;5.70;3.50;;;;;;;15.20;37.47;101547.16;104400;1293;69219;-88
2022/11/30 09:08:03;;;;;;;5.00;3.50;;;;;;;15.20;37.38;101538.79;104149;1292;69241;-89
2022/11/30 09:10:28;;;;;;;4.90;3.50;;;;;;;15.20;37.49;101537.99;104160;1286;69166;-88
2022/11/30 09:12:54;;;;;;;4.20;3.00;;;;;;;15.20;37.40;101530.91;104182;1285;69189;-88
2022/11/30 09:15:20;;;;;;;4.50;3.20;;;;;;;15.20;37.39;101533.55;104373;1293;69163;-88
2022/11/30 09:17:46;;;;;;;5.20;3.70;;;;;;;15.19;37.41;101533.55;104587;1292;69151;-88
2022/11/30 09:20:11;;;;;;;4.70;3.50;;;;;;;15.20;37.49;101529.24;104597;1290;69165;-88
2022/11/30 09:22:40;;;;;;;4.50;3.40;;;;;;;15.19;37.35;101525.58;104363;1298;72359;-88
2022/11/30 09:25:07;;;;;;;7.00;3.20;;;;;;;15.19;37.49;101521.69;104371;1292;67784;-88
2022/11/30 09:27:32;;;;;;;3.50;2.90;;;;;;;15.19;37.39;101511.48;104265;1292;69276;-93
2022/11/30 09:29:58;;;;;;;3.70;3.00;;;;;;;15.20;37.31;101507.65;104552;1293;68799;-88
2022/11/30 09:32:23;;;;;;;4.10;3.10;;;;;;;15.20;37.29;101508.92;104298;1295;69183;-88
2022/11/30 09:34:49;;;;;;;4.50;3.10;;;;;;;15.20;37.47;101503.52;104596;1290;69339;-88
2022/11/30 09:37:14;;;;;;;4.90;3.10;;;;;;;15.20;37.45;101498.48;104278;1286;69068;-88
2022/11/30 09:39:40;;;;;;;4.30;3.00;;;;;;;15.20;37.33;101497.27;104291;1292;69218;-89
2022/11/30 09:42:23;;;;;;;4.00;2.80;;;;;;;15.20;37.40;101493.61;104181;1293;69223;-88
2022/11/30 09:45:03;;;;;;;4.00;3.00;;;;;;;15.20;37.35;101498.23;104473;1291;72267;-88
2022/11/30 09:47:45;;;;;;;3.70;2.90;;;;;;;15.20;37.37;101503.04;104342;1295;69201;-89
2022/11/30 09:50:14;;;;;;;4.20;3.20;;;;;;;15.20;37.37;101507.49;104398;1288;69188;-88
2022/11/30 09:52:49;;;;;;;6.90;3.00;;;;;;;15.20;37.35;101494.42;104434;1293;73586;-88
2022/11/30 09:55:26;;;;;;;3.90;2.80;;;;;;;15.20;37.31;101499.52;105082;1289;82063;-88
2022/11/30 09:57:53;;;;;;;3.40;2.70;;;;;;;15.20;37.42;101500.16;107188;1285;72600;-89
2022/11/30 10:00:22;;;;;;;4.50;3.00;;;;;;;15.21;37.36;101491.70;107085;1280;66542;-88
2022/11/30 10:02:49;;;;;;;4.20;3.20;;;;;;;15.21;37.37;101495.58;106930;1285;66334;-89
2022/11/30 10:05:49;;;;;;;3.90;2.70;;;;;;;15.22;37.42;101493.48;106222;1281;67442;-89
2022/11/30 10:08:38;;;;;;;3.80;2.90;;;;;;;15.22;37.42;101489.09;107233;1287;82545;-89
2022/11/30 10:11:06;;;;;;;3.60;2.90;;;;;;;15.24;37.44;101495.19;106170;1285;71137;-89
2022/11/30 10:13:35;;;;;;;3.20;2.80;;;;;;;15.24;37.36;101489.58;104576;1294;69199;-88
2022/11/30 10:16:24;;;;;;;3.60;2.70;;;;;;;15.25;37.31;101489.16;104652;1285;69087;-88
2022/11/30 10:19:04;;;;;;;3.80;2.40;;;;;;;15.26;37.33;101483.49;104602;1292;73674;-88
2022/11/30 10:21:48;;;;;;;4.10;2.70;;;;;;;15.25;37.25;101483.74;104544;1286;83078;-90
2022/11/30 10:24:36;;;;;;;5.10;2.60;;;;;;;15.26;37.18;101491.14;104405;1285;73372;-88
2022/11/30 10:27:15;;;;;;;3.60;2.80;;;;;;;15.25;37.28;101492.91;106188;1288;66644;-88
2022/11/30 10:29:41;;;;;;;3.30;2.70;;;;;;;15.25;37.31;101490.68;106567;1290;66499;-88
2022/11/30 10:32:18;;;;;;;3.70;2.80;;;;;;;15.25;37.14;101479.52;104613;1290;69231;-89
2022/11/30 10:34:44;;;;;;;3.60;2.70;;;;;;;15.25;37.19;101475.06;104438;1291;82073;-89
2022/11/30 10:37:19;;;;;;;4.40;2.60;;;;;;;15.26;37.17;101468.50;104832;1287;69317;-89
2022/11/30 10:39:54;;;;;;;4.10;2.90;;;;;;;15.25;37.26;101466.05;104620;1291;69090;-88
2022/11/30 10:42:35;;;;;;;3.70;2.70;;;;;;;15.26;37.17;101461.48;104529;1284;69074;-92
2022/11/30 10:45:09;;;;;;;3.60;2.70;;;;;;;15.26;37.08;101465.25;104382;1292;74573;-88
2022/11/30 10:47:36;;;;;;;4.50;2.80;;;;;;;15.25;36.94;101460.73;104633;1293;82023;-88
2022/11/30 10:50:05;;;;;;;3.50;2.70;;;;;;;15.25;37.05;101463.91;104517;1293;69240;-88
2022/11/30 10:52:37;;;;;;;3.90;2.90;;;;;;;15.25;37.10;101463.04;104484;1288;69196;-88
2022/11/30 10:55:13;;;;;;;3.10;2.70;;;;;;;15.25;37.01;101460.65;104683;1288;69210;-89
2022/11/30 10:57:39;;;;;;;4.10;2.70;;;;;;;15.25;37.10;101456.59;104835;1290;74587;-88
2022/11/30 11:00:06;;;;;;;3.70;2.70;;;;;;;15.25;37.01;101457.77;104409;1294;69361;-88
2022/11/30 11:02:44;;;;;;;3.50;2.60;;;;;;;15.24;37.10;101459.47;104965;1290;69128;-87
2022/11/30 11:05:14;;;;;;;4.30;2.80;;;;;;;15.24;37.04;101463.05;104758;1295;69074;-87
2022/11/30 11:08:00;;;;;;;5.20;2.60;;;;;;;15.24;37.05;101457.09;104819;1295;69221;-88
2022/11/30 11:10:48;;;;;;;3.40;2.40;;;;;;;15.24;37.06;101458.84;104669;1292;75573;-90
2022/11/30 11:13:18;;;;;;;3.50;2.70;;;;;;;15.24;37.01;101456.13;104451;1291;82128;-90
2022/11/30 11:16:10;;;;;;;4.20;2.60;;;;;;;15.23;37.04;101456.95;104539;1281;73235;-90
2022/11/30 11:18:50;;;;;;;4.40;2.50;;;;;;;15.23;36.92;101461.49;104408;1295;69197;-90
2022/11/30 11:21:19;;;;;;;2.90;2.40;;;;;;;15.23;36.94;101463.81;104383;1290;69168;-89
2022/11/30 11:23:45;;;;;;;3.50;2.40;;;;;;;15.23;36.90;101467.64;104102;1297;74326;-90